createdAt,value
2023-05-19T00:02:13.117Z,8.66
2023-05-19T00:06:15.278Z,8.73
2023-05-19T00:10:10.643Z,8.78
2023-05-19T00:13:22.014Z,8.82
2023-05-19T00:16:58.675Z,8.80
2023-05-19T00:20:37.805Z,8.77
2023-05-19T00:24:13.801Z,8.77
2023-05-19T00:27:51.207Z,8.72
2023-05-19T00:31:29.322Z,8.65
2023-05-19T00:35:07.060Z,8.61
2023-05-19T00:38:44.455Z,8.53
2023-05-19T00:42:21.956Z,8.48
2023-05-19T00:46:00.618Z,8.49
2023-05-19T00:49:37.162Z,8.46
2023-05-19T00:53:18.335Z,8.45
2023-05-19T00:56:54.319Z,8.39
2023-05-19T01:00:31.060Z,8.40
2023-05-19T01:04:10.807Z,8.42
2023-05-19T01:07:47.316Z,8.44
2023-05-19T01:11:23.222Z,8.40
2023-05-19T01:15:02.184Z,8.37
2023-05-19T01:19:01.989Z,8.34
2023-05-19T01:22:32.301Z,8.27
2023-05-19T01:26:11.291Z,8.20
2023-05-19T01:29:48.905Z,8.19
2023-05-19T01:33:16.443Z,8.11
2023-05-19T01:36:50.027Z,8.03
2023-05-19T01:40:26.925Z,8.00
2023-05-19T01:44:02.719Z,8.03
2023-05-19T01:47:44.745Z,8.07
2023-05-19T01:51:18.279Z,8.09
2023-05-19T01:54:56.049Z,8.10
2023-05-19T01:58:46.803Z,8.14
2023-05-19T02:02:47.361Z,8.20
2023-05-19T02:06:17.990Z,8.24
2023-05-19T02:09:55.546Z,8.27
2023-05-19T02:13:08.548Z,8.25
2023-05-19T02:16:46.419Z,8.18
2023-05-19T02:20:19.361Z,8.10
2023-05-19T02:23:57.258Z,8.02
2023-05-19T02:27:39.287Z,7.99
2023-05-19T02:31:12.558Z,7.93
2023-05-19T02:34:50.206Z,7.90
2023-05-19T02:38:27.620Z,7.95
2023-05-19T02:42:05.613Z,7.97
2023-05-19T02:45:43.066Z,7.93
2023-05-19T02:49:20.989Z,7.92
2023-05-19T02:52:58.371Z,7.95
2023-05-19T02:56:36.043Z,7.95
2023-05-19T03:00:14.419Z,7.89
2023-05-19T03:03:51.558Z,7.88
2023-05-19T03:07:29.797Z,7.88
2023-05-19T03:11:06.894Z,7.90
2023-05-19T03:14:44.354Z,7.92
2023-05-19T03:18:24.654Z,7.97
2023-05-19T03:22:00.672Z,8.02
2023-05-19T03:25:37.441Z,8.08
2023-05-19T03:29:14.937Z,8.14
2023-05-19T03:32:53.340Z,8.19
2023-05-19T03:36:33.391Z,8.21
2023-05-19T03:40:09.003Z,8.20
2023-05-19T03:43:45.772Z,8.23
2023-05-19T03:47:23.428Z,8.26
2023-05-19T03:51:01.610Z,8.31
2023-05-19T03:54:39.693Z,8.34
2023-05-19T03:58:16.653Z,8.39
2023-05-19T04:01:54.845Z,8.46
2023-05-19T04:05:32.264Z,8.52
2023-05-19T04:09:14.284Z,8.60
2023-05-19T04:12:47.931Z,8.65
2023-05-19T04:16:25.584Z,8.70
2023-05-19T04:20:02.785Z,8.76
2023-05-19T04:23:40.448Z,8.83
2023-05-19T04:27:19.082Z,8.93
2023-05-19T04:30:58.849Z,8.98
2023-05-19T04:34:40.652Z,9.08
2023-05-19T04:38:12.259Z,9.17
2023-05-19T04:41:48.829Z,9.26
2023-05-19T04:45:26.876Z,9.38
2023-05-19T04:49:04.020Z,9.51
2023-05-19T04:52:42.637Z,9.64
2023-05-19T04:56:19.742Z,9.77
2023-05-19T05:00:00.557Z,9.91
2023-05-19T05:07:12.313Z,10.24
2023-05-19T05:10:52.753Z,10.41
2023-05-19T05:14:28.051Z,10.62
2023-05-19T05:18:05.935Z,10.82
2023-05-19T05:21:43.415Z,11.04
2023-05-19T05:25:21.276Z,11.24
2023-05-19T05:28:58.314Z,11.43
2023-05-19T05:32:36.348Z,11.65
2023-05-19T05:36:34.444Z,11.90
2023-05-19T05:39:51.604Z,12.00
2023-05-19T05:43:30.060Z,12.08
2023-05-19T05:47:07.186Z,12.04
2023-05-19T05:50:46.026Z,12.02
2023-05-19T05:54:25.619Z,12.01
2023-05-19T05:58:02.151Z,12.03
2023-05-19T06:01:37.530Z,12.10
2023-05-19T06:05:15.547Z,12.23
2023-05-19T06:08:52.956Z,12.34
2023-05-19T06:12:31.270Z,12.43
2023-05-19T06:16:08.220Z,12.56
2023-05-19T06:19:46.246Z,12.80
2023-05-19T06:23:26.976Z,13.02
2023-05-19T06:27:01.409Z,13.22
2023-05-19T06:30:38.636Z,13.32
2023-05-19T06:34:17.837Z,13.44
2023-05-19T06:37:55.924Z,13.70
2023-05-19T06:41:31.981Z,14.07
2023-05-19T06:45:10.033Z,14.39
2023-05-19T06:48:47.513Z,14.56
2023-05-19T06:52:25.099Z,14.89
2023-05-19T06:56:02.568Z,15.14
2023-05-19T06:59:43.725Z,15.28
2023-05-19T07:03:18.123Z,15.36
2023-05-19T07:06:55.785Z,15.53
2023-05-19T07:10:33.714Z,15.64
2023-05-19T07:14:11.064Z,15.76
2023-05-19T07:17:48.535Z,15.92
2023-05-19T07:21:26.269Z,16.17
2023-05-19T07:25:04.487Z,16.45
2023-05-19T07:28:43.503Z,16.69
2023-05-19T07:32:19.286Z,16.89
2023-05-19T07:35:57.152Z,17.12
2023-05-19T07:39:36.241Z,17.31
2023-05-19T07:43:14.442Z,17.63
2023-05-19T07:46:49.760Z,17.82
2023-05-19T07:50:27.788Z,17.90
2023-05-19T07:54:05.093Z,18.00
2023-05-19T07:57:43.152Z,18.00
2023-05-19T08:01:20.581Z,17.71
2023-05-19T08:04:58.650Z,17.54
2023-05-19T08:08:36.171Z,17.50
2023-05-19T08:12:14.402Z,17.41
2023-05-19T08:15:51.436Z,17.34
2023-05-19T08:19:29.482Z,17.22
2023-05-19T08:23:06.820Z,17.16
2023-05-19T08:26:44.615Z,16.98
2023-05-19T08:30:22.080Z,16.65
2023-05-19T08:34:00.037Z,16.45
2023-05-19T08:37:38.682Z,16.51
2023-05-19T08:41:16.939Z,16.52
2023-05-19T08:44:52.704Z,16.45
2023-05-19T08:48:33.940Z,16.24
2023-05-19T08:52:25.034Z,16.11
2023-05-19T08:56:10.654Z,15.98
2023-05-19T08:59:23.593Z,15.77
2023-05-19T09:03:17.429Z,15.65
2023-05-19T09:06:41.179Z,15.49
2023-05-19T09:10:16.812Z,15.58
2023-05-19T09:13:54.411Z,15.60
2023-05-19T09:17:34.107Z,15.41
2023-05-19T09:21:11.325Z,15.38
2023-05-19T09:24:47.825Z,15.52
2023-05-19T09:28:26.804Z,15.72
2023-05-19T09:32:05.400Z,15.76
2023-05-19T09:35:40.354Z,15.75
2023-05-19T09:39:19.964Z,15.69
2023-05-19T09:42:55.636Z,15.87
2023-05-19T09:46:36.125Z,16.12
2023-05-19T09:50:12.560Z,16.09
2023-05-19T09:53:48.794Z,15.90
2023-05-19T09:57:29.461Z,15.70
2023-05-19T10:01:05.148Z,15.48
2023-05-19T10:04:44.201Z,15.58
2023-05-19T10:08:19.930Z,15.85
2023-05-19T10:11:58.671Z,15.86
2023-05-19T10:15:46.709Z,15.79
2023-05-19T10:19:14.295Z,15.69
2023-05-19T10:22:50.331Z,15.65
2023-05-19T10:26:28.752Z,15.59
2023-05-19T10:30:15.657Z,15.48
2023-05-19T10:34:04.451Z,15.25
2023-05-19T10:37:41.849Z,15.05
2023-05-19T10:41:12.458Z,15.27
2023-05-19T10:45:04.348Z,15.33
2023-05-19T10:48:17.390Z,15.02
2023-05-19T10:51:57.689Z,14.85
2023-05-19T10:55:53.554Z,14.75
2023-05-19T10:59:06.987Z,14.79
2023-05-19T11:03:13.886Z,14.86
2023-05-19T11:06:30.233Z,14.55
2023-05-19T11:10:00.195Z,14.28
2023-05-19T11:13:37.683Z,14.08
2023-05-19T11:17:16.650Z,13.99
2023-05-19T11:21:01.202Z,13.90
2023-05-19T11:24:35.261Z,13.87
2023-05-19T11:28:08.641Z,13.86
2023-05-19T11:31:46.521Z,13.84
2023-05-19T11:35:23.497Z,13.74
2023-05-19T11:39:02.630Z,13.65
2023-05-19T11:42:39.436Z,13.57
2023-05-19T11:46:16.950Z,13.49
2023-05-19T11:49:56.792Z,13.47
2023-05-19T11:53:36.183Z,13.52
2023-05-19T11:57:11.055Z,13.46
2023-05-19T12:00:48.004Z,13.35
2023-05-19T12:04:25.525Z,13.36
2023-05-19T12:08:03.548Z,13.35
2023-05-19T12:11:40.944Z,13.25
2023-05-19T12:15:25.016Z,13.06
2023-05-19T12:19:15.142Z,12.98
2023-05-19T12:22:34.984Z,12.94
2023-05-19T12:26:12.001Z,12.96
2023-05-19T12:29:53.909Z,12.91
2023-05-19T12:33:26.812Z,12.89
2023-05-19T12:37:05.094Z,12.83
2023-05-19T12:40:45.598Z,12.85
2023-05-19T12:44:21.336Z,12.87
2023-05-19T12:47:57.821Z,12.96
2023-05-19T12:51:34.889Z,13.12
2023-05-19T12:55:14.486Z,13.26
2023-05-19T12:58:54.823Z,13.39
2023-05-19T13:02:28.388Z,13.50
2023-05-19T13:06:05.914Z,13.55
2023-05-19T13:09:43.126Z,13.65
2023-05-19T13:13:22.276Z,13.69
2023-05-19T13:16:58.886Z,13.61
2023-05-19T13:20:40.988Z,13.53
2023-05-19T13:24:14.292Z,13.47
2023-05-19T13:27:51.685Z,13.45
2023-05-19T13:31:29.740Z,13.42
2023-05-19T13:35:07.789Z,13.38
2023-05-19T13:38:44.755Z,13.33
2023-05-19T13:42:22.411Z,13.36
2023-05-19T13:46:00.139Z,13.37
2023-05-19T13:49:37.818Z,13.36
2023-05-19T13:53:15.283Z,13.29
2023-05-19T13:56:53.103Z,13.18
2023-05-19T14:00:32.526Z,13.16
2023-05-19T14:04:08.976Z,13.06
2023-05-19T14:07:47.069Z,12.89
2023-05-19T14:11:23.810Z,12.96
2023-05-19T14:15:02.200Z,12.97
2023-05-19T14:18:39.098Z,12.81
2023-05-19T14:22:17.453Z,12.62
2023-05-19T14:25:54.554Z,12.51
2023-05-19T14:29:32.292Z,12.42
2023-05-19T14:33:09.994Z,12.35
2023-05-19T14:36:48.913Z,12.34
2023-05-19T14:40:25.290Z,12.25
2023-05-19T14:44:02.865Z,12.23
2023-05-19T14:47:40.844Z,12.16
2023-05-19T14:51:18.176Z,12.13
2023-05-19T14:54:57.188Z,12.05
2023-05-19T14:58:33.744Z,12.04
2023-05-19T15:02:12.416Z,12.05
2023-05-19T15:05:49.794Z,11.96
2023-05-19T15:09:26.744Z,11.90
2023-05-19T15:13:05.098Z,11.86
2023-05-19T15:16:41.820Z,11.83
2023-05-19T15:20:20.198Z,11.80
2023-05-19T15:23:57.303Z,11.83
2023-05-19T15:27:36.749Z,11.79
2023-05-19T15:31:12.546Z,11.70
2023-05-19T15:34:50.190Z,11.60
2023-05-19T15:40:55.314Z,11.61
2023-05-19T15:42:05.500Z,11.54
2023-05-19T15:45:43.616Z,11.49
2023-05-19T15:49:20.754Z,11.41
2023-05-19T15:52:58.343Z,11.38
2023-05-19T15:56:36.493Z,11.33
2023-05-19T16:00:14.987Z,11.28
2023-05-19T16:03:51.924Z,11.20
2023-05-19T16:07:29.802Z,11.12
2023-05-19T16:11:07.281Z,11.14
2023-05-19T16:14:44.631Z,11.15
2023-05-19T16:18:22.914Z,11.11
2023-05-19T16:22:00.137Z,11.08
2023-05-19T16:25:37.531Z,11.05
2023-05-19T16:29:15.259Z,11.00
2023-05-19T16:32:56.404Z,10.93
2023-05-19T16:36:31.961Z,10.87
2023-05-19T16:40:10.228Z,10.81
2023-05-19T16:43:46.336Z,10.75
2023-05-19T16:47:23.767Z,10.69
2023-05-19T16:51:01.600Z,10.70
2023-05-19T16:54:38.885Z,10.71
2023-05-19T16:58:16.986Z,10.68
2023-05-19T17:01:54.907Z,10.63
2023-05-19T17:05:34.077Z,10.58
2023-05-19T17:09:09.579Z,10.54
2023-05-19T17:12:47.221Z,10.51
2023-05-19T17:16:24.855Z,10.52
2023-05-19T17:20:03.219Z,10.53
2023-05-19T17:23:40.492Z,10.53
2023-05-19T17:27:18.224Z,10.54
2023-05-19T17:30:55.951Z,10.54
2023-05-19T17:34:33.266Z,10.54
2023-05-19T17:38:11.376Z,10.53
2023-05-19T17:41:48.854Z,10.52
2023-05-19T17:45:26.886Z,10.49
2023-05-19T17:49:04.431Z,10.42
2023-05-19T17:52:42.066Z,10.41
2023-05-19T17:56:22.540Z,10.45
2023-05-19T17:59:57.298Z,10.50
2023-05-19T18:03:36.193Z,10.59
2023-05-19T18:07:14.424Z,10.66
2023-05-19T18:10:52.875Z,10.73
2023-05-19T18:14:28.006Z,10.74
2023-05-19T18:18:07.921Z,10.65
2023-05-19T18:21:42.803Z,10.53
2023-05-19T18:25:21.425Z,10.47
2023-05-19T18:29:02.623Z,10.42
2023-05-19T18:32:55.216Z,10.50
2023-05-19T18:36:15.507Z,10.57
2023-05-19T18:39:51.594Z,10.63
2023-05-19T18:43:30.645Z,10.66
2023-05-19T18:47:06.824Z,10.69
2023-05-19T18:50:45.055Z,10.70
2023-05-19T18:54:22.949Z,10.65
2023-05-19T18:58:00.246Z,10.53
2023-05-19T19:01:37.761Z,10.41
2023-05-19T19:05:15.829Z,10.33
2023-05-19T19:08:52.950Z,10.28
2023-05-19T19:12:31.255Z,10.26
2023-05-19T19:16:08.397Z,10.24
2023-05-19T19:19:46.430Z,10.22
2023-05-19T19:23:24.413Z,10.17
2023-05-19T19:27:01.860Z,10.17
2023-05-19T19:30:39.256Z,10.15
2023-05-19T19:34:19.862Z,10.13
2023-05-19T19:37:54.574Z,10.10
2023-05-19T19:41:33.667Z,10.10
2023-05-19T19:45:14.038Z,10.09
2023-05-19T19:48:47.470Z,10.09
2023-05-19T19:52:26.034Z,10.10
2023-05-19T19:56:04.519Z,10.08
2023-05-19T19:59:40.226Z,10.05
2023-05-19T20:03:18.191Z,10.03
2023-05-19T20:06:56.008Z,10.02
2023-05-19T20:10:33.961Z,10.00
2023-05-19T20:14:11.446Z,10.02
2023-05-19T20:17:49.171Z,10.03
2023-05-19T20:21:26.239Z,10.05
2023-05-19T20:25:05.048Z,10.05
2023-05-19T20:28:42.061Z,10.06
2023-05-19T20:32:19.811Z,10.10
2023-05-19T20:35:57.566Z,10.14
2023-05-19T20:39:34.996Z,10.14
2023-05-19T20:43:12.876Z,10.14
2023-05-19T20:46:50.716Z,10.15
2023-05-19T20:50:28.434Z,10.15
2023-05-19T20:54:07.579Z,10.16
2023-05-19T20:57:44.862Z,10.17
2023-05-19T21:01:21.024Z,10.17
2023-05-19T21:04:58.867Z,10.18
2023-05-19T21:08:36.305Z,10.17
2023-05-19T21:12:16.415Z,10.15
2023-05-19T21:15:51.809Z,10.18
2023-05-19T21:19:29.435Z,10.19
2023-05-19T21:23:06.932Z,10.19
2023-05-19T21:26:44.620Z,10.20
2023-05-19T21:30:23.906Z,10.18
2023-05-19T21:34:00.257Z,10.18
2023-05-19T21:37:38.136Z,10.17
2023-05-19T21:41:15.369Z,10.14
2023-05-19T21:44:52.896Z,10.09
2023-05-19T21:48:31.310Z,10.04
2023-05-19T21:52:08.721Z,10.00
2023-05-19T21:55:46.123Z,9.96
2023-05-19T21:59:24.937Z,9.92
2023-05-19T22:03:01.217Z,9.93
2023-05-19T22:06:39.346Z,9.95
2023-05-19T22:10:16.626Z,9.94
2023-05-19T22:13:57.125Z,9.95
2023-05-19T22:17:32.381Z,9.97
2023-05-19T22:21:10.537Z,9.95
2023-05-19T22:24:47.048Z,9.93
2023-05-19T22:28:25.217Z,9.93
2023-05-19T22:32:02.935Z,9.89
2023-05-19T22:35:40.383Z,9.88
2023-05-19T22:39:18.002Z,9.89
2023-05-19T22:42:55.781Z,9.93
2023-05-19T22:46:34.491Z,9.92
2023-05-19T22:50:12.534Z,9.94
2023-05-19T22:53:49.318Z,9.94
2023-05-19T22:57:26.648Z,9.96
2023-05-19T23:01:04.448Z,9.97
2023-05-19T23:04:42.980Z,9.99
2023-05-19T23:08:19.433Z,10.00
2023-05-19T23:11:57.186Z,10.02
2023-05-19T23:15:34.984Z,10.03
2023-05-19T23:19:12.429Z,10.03
2023-05-19T23:22:50.106Z,10.01
2023-05-19T23:26:27.683Z,10.01
2023-05-19T23:30:06.694Z,9.99
2023-05-19T23:33:43.427Z,9.99
2023-05-19T23:37:20.593Z,9.97
2023-05-19T23:40:58.434Z,9.92
2023-05-19T23:44:35.933Z,9.89
2023-05-19T23:48:13.852Z,9.85
2023-05-19T23:51:51.392Z,9.82
2023-05-19T23:55:29.235Z,9.85
2023-05-19T23:59:06.763Z,9.89
